createdAt,value
2023-05-15T00:05:25.089Z,75751.25
2023-05-15T00:13:00.525Z,75765.53
2023-05-15T00:20:34.315Z,75763.50
2023-05-15T00:28:09.726Z,75779.81
2023-05-15T00:35:44.062Z,75788.00
2023-05-15T00:43:19.517Z,75798.19
2023-05-15T00:50:53.336Z,75820.63
2023-05-15T00:58:30.459Z,75836.97
2023-05-15T01:06:04.639Z,75865.53
2023-05-15T01:13:40.072Z,75867.56
2023-05-15T01:21:47.349Z,75869.63
2023-05-15T01:29:28.527Z,75883.91
2023-05-15T01:37:04.485Z,75898.19
2023-05-15T01:44:44.264Z,75902.28
2023-05-15T01:52:25.334Z,75902.28
2023-05-15T02:00:02.291Z,75914.53
2023-05-15T02:07:36.611Z,75924.72
2023-05-15T02:15:14.176Z,75941.06
2023-05-15T02:22:48.287Z,75951.25
2023-05-15T02:30:34.124Z,75963.50
2023-05-15T02:38:12.685Z,75988.00
2023-05-15T02:45:48.184Z,75990.03
2023-05-15T02:53:22.147Z,75988.00
2023-05-15T03:00:57.680Z,75983.91
2023-05-15T03:08:31.474Z,75985.94
2023-05-15T03:16:07.307Z,75992.06
2023-05-15T03:23:41.231Z,76065.53
2023-05-15T03:31:16.482Z,76043.09
2023-05-15T03:38:50.282Z,76028.81
2023-05-15T03:46:25.638Z,76020.66
2023-05-15T03:53:59.727Z,76026.78
2023-05-15T04:01:44.078Z,76020.66
2023-05-15T04:09:27.747Z,76014.53
2023-05-15T04:17:02.923Z,76008.41
2023-05-15T04:24:36.968Z,76008.41
2023-05-15T04:32:12.867Z,76004.31
2023-05-15T04:39:51.764Z,75990.03
2023-05-15T04:47:30.419Z,75977.78
2023-05-15T04:55:04.456Z,75959.41
2023-05-15T05:02:40.355Z,75941.06
2023-05-15T05:10:26.423Z,75916.56
2023-05-15T05:18:01.820Z,75892.06
2023-05-15T05:25:35.789Z,75839.00
2023-05-15T05:33:11.211Z,75800.22
2023-05-15T05:40:45.206Z,75765.53
2023-05-15T05:48:20.813Z,75722.69
2023-05-15T05:55:55.181Z,75698.19
2023-05-15T06:03:31.131Z,75659.44
2023-05-15T06:11:05.294Z,75620.66
2023-05-15T06:18:40.391Z,75569.63
2023-05-15T06:26:14.359Z,75510.47
2023-05-15T06:33:49.621Z,75473.72
2023-05-15T06:41:23.556Z,75414.56
2023-05-15T06:48:58.891Z,75383.94
2023-05-15T06:56:32.985Z,75320.69
2023-05-15T07:04:08.491Z,75271.72
2023-05-15T07:11:42.477Z,75239.06
2023-05-15T07:19:20.995Z,75200.31
2023-05-15T07:26:58.540Z,75161.53
2023-05-15T07:34:34.477Z,75114.59
2023-05-15T07:42:08.474Z,75073.78
2023-05-15T07:49:43.784Z,75033.00
2023-05-15T07:57:18.288Z,74981.97
2023-05-15T08:04:53.435Z,74926.91
2023-05-15T08:12:27.665Z,74904.44
2023-05-15T08:20:03.068Z,74898.34
2023-05-15T08:27:36.933Z,74873.84
2023-05-15T08:35:12.335Z,74867.72
2023-05-15T08:42:49.526Z,74859.56
2023-05-15T08:50:25.948Z,74837.13
2023-05-15T08:58:00.934Z,74828.97
2023-05-15T09:05:37.997Z,74812.66
2023-05-15T09:13:14.161Z,74802.44
2023-05-15T09:20:49.346Z,74792.25
2023-05-15T09:28:27.964Z,74786.13
2023-05-15T09:36:03.678Z,74788.16
2023-05-15T09:43:39.634Z,74777.97
2023-05-15T09:51:18.551Z,74765.72
2023-05-15T09:58:55.989Z,74751.44
2023-05-15T10:06:36.602Z,74722.88
2023-05-15T10:14:11.884Z,74704.50
2023-05-15T10:21:48.914Z,74675.94
2023-05-15T10:29:25.823Z,74647.41
2023-05-15T10:37:02.366Z,74614.75
2023-05-15T10:44:36.199Z,74563.75
2023-05-15T10:52:11.916Z,74533.16
2023-05-15T10:59:45.910Z,74531.09
2023-05-15T11:07:24.065Z,74520.91
2023-05-15T11:15:20.248Z,74527.03
2023-05-15T11:23:00.771Z,74531.09
2023-05-15T11:30:39.863Z,74549.47
2023-05-15T11:38:16.606Z,74541.31
2023-05-15T11:54:45.975Z,74516.84
2023-05-15T12:02:20.856Z,74510.72
2023-05-15T12:09:56.216Z,74494.38
2023-05-15T12:17:32.928Z,74463.78
2023-05-15T12:25:09.581Z,74416.88
2023-05-15T12:32:46.189Z,74402.59
2023-05-15T12:40:23.346Z,74394.44
2023-05-15T12:48:02.470Z,74349.56
2023-05-15T12:55:38.212Z,74312.84
2023-05-15T13:03:13.818Z,74274.06
2023-05-15T13:11:20.050Z,74241.44
2023-05-15T13:18:53.717Z,74241.44
2023-05-15T13:26:28.947Z,74249.59
2023-05-15T13:34:03.147Z,74249.59
2023-05-15T13:41:39.676Z,74243.47
2023-05-15T13:49:13.381Z,74216.97
2023-05-15T13:56:48.682Z,74198.59
2023-05-15T14:04:22.507Z,74245.53
2023-05-15T14:11:57.916Z,74461.75
2023-05-15T14:19:31.729Z,74533.16
2023-05-15T14:27:07.230Z,74529.06
2023-05-15T14:34:41.124Z,74588.22
2023-05-15T14:42:17.397Z,74535.19
2023-05-15T14:49:51.228Z,74508.66
2023-05-15T14:57:26.634Z,74596.38
2023-05-15T15:05:00.451Z,74635.16
2023-05-15T15:12:35.654Z,74629.03
2023-05-15T15:20:11.518Z,74588.22
2023-05-15T15:27:47.353Z,74606.59
2023-05-15T15:35:21.126Z,74539.28
2023-05-15T15:42:56.449Z,74582.13
2023-05-15T15:50:30.465Z,74618.84
2023-05-15T15:58:05.756Z,74653.50
2023-05-15T16:05:39.591Z,74659.63
2023-05-15T16:13:17.091Z,74688.19
2023-05-15T16:20:51.158Z,74704.50
2023-05-15T16:28:26.233Z,74731.03
2023-05-15T16:35:59.827Z,74755.53
2023-05-15T16:43:35.220Z,74769.81
2023-05-15T16:51:09.033Z,74788.16
2023-05-15T16:58:44.202Z,74824.88
2023-05-15T17:06:17.961Z,74879.97
2023-05-15T17:13:53.154Z,74892.22
2023-05-15T17:21:26.927Z,74916.69
2023-05-15T17:29:02.135Z,74924.84
2023-05-15T17:36:35.982Z,74967.69
2023-05-15T17:53:04.862Z,74977.91
2023-05-15T18:00:38.636Z,75000.34
2023-05-15T18:08:14.126Z,75010.53
2023-05-15T18:15:49.059Z,75030.94
2023-05-15T18:23:24.267Z,75039.09
2023-05-15T18:30:58.842Z,75053.41
2023-05-15T18:38:34.826Z,75073.78
2023-05-15T18:46:08.760Z,75090.13
2023-05-15T18:53:43.935Z,75110.53
2023-05-15T19:01:18.044Z,75128.88
2023-05-15T19:08:53.963Z,75149.28
2023-05-15T19:16:28.721Z,75161.53
2023-05-15T19:24:04.224Z,75171.72
2023-05-15T19:31:38.603Z,75175.81
2023-05-15T19:39:14.086Z,75188.06
2023-05-15T19:46:48.050Z,75192.13
2023-05-15T19:54:23.349Z,75204.38
2023-05-15T20:01:57.351Z,75202.34
2023-05-15T20:09:32.851Z,75210.50
2023-05-15T20:17:07.030Z,75216.63
2023-05-15T20:24:42.109Z,75237.03
2023-05-15T20:32:16.018Z,75247.22
2023-05-15T20:39:51.633Z,75253.34
2023-05-15T20:47:25.663Z,75257.44
2023-05-15T20:55:00.772Z,75263.56
2023-05-15T21:02:34.334Z,75275.78
2023-05-15T21:10:10.698Z,75281.91
2023-05-15T21:17:44.492Z,75281.91
2023-05-15T21:25:44.115Z,75283.97
2023-05-15T21:33:17.858Z,75290.06
2023-05-15T21:40:53.188Z,75312.53
2023-05-15T21:48:27.099Z,75322.72
2023-05-15T21:56:03.055Z,75337.00
2023-05-15T22:03:36.832Z,75341.09
2023-05-15T22:11:12.071Z,75347.22
2023-05-15T22:18:47.435Z,75345.16
2023-05-15T22:26:23.245Z,75357.41
2023-05-15T22:33:57.418Z,75353.34
2023-05-15T22:41:33.123Z,75369.66
2023-05-15T22:49:09.885Z,75388.03
2023-05-15T22:56:45.310Z,75414.56
2023-05-15T23:04:19.337Z,75422.72
2023-05-15T23:11:55.057Z,75437.00
2023-05-15T23:19:28.966Z,75449.25
2023-05-15T23:27:04.565Z,75455.38
2023-05-15T23:34:38.509Z,75475.75
2023-05-15T23:42:13.836Z,75483.94
2023-05-15T23:49:47.601Z,75514.53
2023-05-15T23:57:22.659Z,75520.66
